Time;durP1;ratioP1;P1;durP2;ratioP2;P2;SDS_P1;SDS_P2;PMS_P1;PMS_P2;Temp;Humidity;BMP_temperature;BMP_pressure;BME280_temperature;BME280_humidity;BME280_pressure;Samples;Min_cycle;Max_cycle;Signal;HPM_P1;HPM_P2
2022/01/10 00:00:36;;;;;;;;;;;-1.10;99.90;;;;;;5028111;28;19909;-76
2022/01/10 00:03:04;;;;;;;;;;;-1.10;99.90;;;;;;4991635;28;19945;-77
2022/01/10 00:05:30;;;;;;;;;;;-1.10;99.90;;;;;;5009835;28;19929;-76
2022/01/10 00:07:55;;;;;;;;;;;-1.10;99.90;;;;;;5009964;28;19953;-76
2022/01/10 00:10:21;;;;;;;;;;;-1.20;99.90;;;;;;4982735;28;19909;-76
2022/01/10 00:12:47;;;;;;;;;;;-1.30;99.90;;;;;;5027251;28;20337;-77
2022/01/10 00:15:13;;;;;;;;;;;-1.30;99.90;;;;;;5009693;28;19973;-76
2022/01/10 00:17:39;;;;;;;;;;;-1.20;99.90;;;;;;5008691;28;19977;-76
2022/01/10 00:20:05;;;;;;;;;;;-1.20;99.90;;;;;;5009617;28;19940;-76
2022/01/10 00:22:31;;;;;;;;;;;-1.30;99.90;;;;;;5009144;28;19915;-76
2022/01/10 00:24:57;;;;;;;;;;;-1.20;99.90;;;;;;5025024;28;20345;-75
2022/01/10 00:27:22;;;;;;;;;;;-1.30;99.90;;;;;;5026998;28;19910;-77
2022/01/10 00:30:09;;;;;;;;;;;-1.40;99.90;;;;;;5024128;28;19913;-77
2022/01/10 00:32:34;;;;;;;;;;;-1.30;99.90;;;;;;4946500;29;19923;-77
2022/01/10 00:35:00;;;;;;;;;;;-1.30;99.90;;;;;;4946480;29;19919;-77
2022/01/10 00:37:25;;;;;;;;;;;-1.40;99.90;;;;;;4946844;29;19964;-77
2022/01/10 00:39:51;;;;;;;;;;;-1.30;99.90;;;;;;4946910;29;19917;-77
2022/01/10 00:42:17;;;;;;;;;;;-1.40;99.90;;;;;;4946562;29;19910;-76
2022/01/10 00:44:50;;;;;;;;;;;-1.40;99.90;;;;;;4946402;29;19994;-77
2022/01/10 00:47:16;;;;;;;;;;;-1.40;99.90;;;;;;4946763;29;19958;-77
2022/01/10 00:49:42;;;;;;;;;;;-1.40;99.90;;;;;;4946590;29;19930;-77
2022/01/10 00:52:07;;;;;;;;;;;-1.40;99.90;;;;;;4946644;29;19911;-76
2022/01/10 00:54:33;;;;;;;;;;;-1.40;99.90;;;;;;4946479;29;19919;-77
2022/01/10 00:56:58;;;;;;;;;;;-1.40;99.90;;;;;;4946359;29;19917;-77
2022/01/10 00:59:24;;;;;;;;;;;-1.50;99.90;;;;;;4946507;29;19918;-77
2022/01/10 01:01:49;;;;;;;;;;;-1.50;99.90;;;;;;4946111;29;19910;-76
2022/01/10 01:04:15;;;;;;;;;;;-1.60;99.90;;;;;;4946230;29;19949;-77
2022/01/10 01:06:41;;;;;;;;;;;-1.60;99.90;;;;;;4930625;29;19981;-77
2022/01/10 01:09:09;;;;;;;;;;;-1.60;99.90;;;;;;4967240;28;19917;-77
2022/01/10 01:12:44;;;;;;;;;;;-1.60;99.90;;;;;;5009005;28;20004;-77
2022/01/10 01:14:49;;;;;;;;;;;-1.50;99.90;;;;;;5005945;28;19976;-77
2022/01/10 01:17:33;;;;;;;;;;;-1.50;99.90;;;;;;5008552;28;19920;-77
2022/01/10 01:25:09;;;;;;;;;;;-1.70;99.90;;;;;;5025977;28;19909;-77
2022/01/10 01:27:36;;;;;;;;;;;-1.80;99.90;;;;;;5008374;28;19920;-78
2022/01/10 01:30:21;;;;;;;;;;;-1.80;99.90;;;;;;5024521;28;19909;-77
2022/01/10 01:32:47;;;;;;;;;;;-1.80;99.90;;;;;;4945513;29;20005;-77
2022/01/10 01:35:13;;;;;;;;;;;-1.70;99.90;;;;;;4945903;29;19926;-77
2022/01/10 01:37:39;;;;;;;;;;;-1.60;99.90;;;;;;4946014;29;19917;-77
2022/01/10 01:40:07;;;;;;;;;;;-1.70;99.90;;;;;;4930166;29;19922;-77
2022/01/10 01:42:39;;;;;;;;;;;-1.80;99.90;;;;;;4930009;29;19911;-78
2022/01/10 01:45:08;;;;;;;;;;;-1.90;99.90;;;;;;4945565;29;19910;-77
2022/01/10 01:47:33;;;;;;;;;;;-1.80;99.90;;;;;;4946010;29;19911;-77
2022/01/10 01:50:02;;;;;;;;;;;-1.80;99.90;;;;;;4914468;29;19910;-78
2022/01/10 01:52:28;;;;;;;;;;;-1.80;99.90;;;;;;4945710;29;19911;-77
2022/01/10 01:54:53;;;;;;;;;;;-1.80;99.90;;;;;;4945583;29;19929;-77
2022/01/10 01:57:20;;;;;;;;;;;-1.70;99.90;;;;;;4945129;29;19910;-77
2022/01/10 01:59:46;;;;;;;;;;;-1.80;99.90;;;;;;4945684;29;19918;-77
2022/01/10 02:02:11;;;;;;;;;;;-1.90;99.90;;;;;;4913903;29;19919;-77
2022/01/10 02:04:37;;;;;;;;;;;-1.90;99.90;;;;;;4945476;29;19935;-78
2022/01/10 02:07:03;;;;;;;;;;;-1.70;99.90;;;;;;4945789;29;19918;-78
2022/01/10 02:09:30;;;;;;;;;;;-1.80;99.90;;;;;;4933064;28;19906;-77
2022/01/10 02:11:56;;;;;;;;;;;-1.90;99.90;;;;;;4988314;28;20317;-77
2022/01/10 02:14:22;;;;;;;;;;;-2.00;99.90;;;;;;4988290;28;19918;-77
2022/01/10 02:16:55;;;;;;;;;;;-1.80;99.90;;;;;;5005017;28;19909;-78
2022/01/10 02:19:28;;;;;;;;;;;-1.90;99.90;;;;;;4985814;28;19957;-77
2022/01/10 02:21:54;;;;;;;;;;;-1.90;99.90;;;;;;5004562;28;19933;-78
2022/01/10 02:24:23;;;;;;;;;;;-1.90;99.90;;;;;;5004364;28;19910;-77
2022/01/10 02:26:49;;;;;;;;;;;-1.80;99.90;;;;;;4988208;28;19952;-77
2022/01/10 02:29:15;;;;;;;;;;;-1.80;99.90;;;;;;4988322;28;20386;-78
2022/01/10 02:31:41;;;;;;;;;;;-1.90;99.90;;;;;;4990733;28;19957;-78
2022/01/10 02:34:07;;;;;;;;;;;-2.00;99.90;;;;;;4988221;28;19918;-78
2022/01/10 02:36:33;;;;;;;;;;;-2.00;99.90;;;;;;5006338;28;19909;-78
2022/01/10 02:39:00;;;;;;;;;;;-2.00;99.90;;;;;;5023876;28;20003;-78
2022/01/10 02:41:29;;;;;;;;;;;-1.90;99.90;;;;;;4991548;28;20293;-77
2022/01/10 02:43:55;;;;;;;;;;;-2.00;99.90;;;;;;5023672;28;19920;-78
2022/01/10 02:46:23;;;;;;;;;;;-2.10;99.90;;;;;;5023776;28;19909;-78
2022/01/10 02:48:49;;;;;;;;;;;-2.00;99.90;;;;;;5013679;28;20362;-78
2022/01/10 02:51:16;;;;;;;;;;;-2.00;99.90;;;;;;4974417;28;19971;-78
2022/01/10 02:53:41;;;;;;;;;;;-2.00;99.90;;;;;;5006767;28;19925;-78
2022/01/10 02:56:07;;;;;;;;;;;-2.00;99.90;;;;;;5023882;28;19909;-78
2022/01/10 02:58:33;;;;;;;;;;;-1.90;99.90;;;;;;5007445;28;19909;-78
2022/01/10 03:00:59;;;;;;;;;;;-1.90;99.90;;;;;;5023424;28;19917;-78
2022/01/10 03:03:29;;;;;;;;;;;-1.90;99.90;;;;;;5007319;28;19917;-78
2022/01/10 03:05:55;;;;;;;;;;;-1.90;99.90;;;;;;5007256;28;19920;-78
2022/01/10 03:08:20;;;;;;;;;;;-2.10;99.90;;;;;;5007286;28;19909;-78
2022/01/10 03:10:46;;;;;;;;;;;-2.10;99.90;;;;;;5008434;28;19945;-78
2022/01/10 03:13:11;;;;;;;;;;;-2.00;99.90;;;;;;5010583;28;19917;-78
2022/01/10 03:15:37;;;;;;;;;;;-2.10;99.90;;;;;;5010550;28;19909;-78
2022/01/10 03:18:02;;;;;;;;;;;-2.10;99.90;;;;;;5010797;28;19909;-78
2022/01/10 03:20:28;;;;;;;;;;;-2.00;99.90;;;;;;5010781;28;19916;-78
2022/01/10 03:22:53;;;;;;;;;;;-2.10;99.90;;;;;;5010457;28;19960;-78
2022/01/10 03:25:20;;;;;;;;;;;-2.20;99.90;;;;;;4994393;28;19913;-77
2022/01/10 03:27:48;;;;;;;;;;;-2.30;99.90;;;;;;5012079;28;19917;-78
2022/01/10 03:30:15;;;;;;;;;;;-2.20;99.90;;;;;;4990822;28;19910;-78
2022/01/10 03:32:42;;;;;;;;;;;-2.20;99.90;;;;;;5029120;23;20016;-78
2022/01/10 03:35:17;;;;;;;;;;;-2.20;99.90;;;;;;5011389;28;19924;-78
2022/01/10 03:37:43;;;;;;;;;;;-2.20;99.90;;;;;;5011359;28;19909;-78
2022/01/10 03:40:09;;;;;;;;;;;-2.40;99.90;;;;;;4995030;28;19909;-78
2022/01/10 03:42:35;;;;;;;;;;;-2.40;99.90;;;;;;5006503;28;19909;-78
2022/01/10 03:45:01;;;;;;;;;;;-2.40;99.90;;;;;;5048467;28;20380;-78
2022/01/10 03:47:29;;;;;;;;;;;-2.40;99.90;;;;;;5014441;28;19909;-78
2022/01/10 03:49:55;;;;;;;;;;;-2.20;99.90;;;;;;5014666;28;19965;-78
2022/01/10 03:52:22;;;;;;;;;;;-2.30;99.90;;;;;;4998082;28;19913;-78
2022/01/10 03:54:48;;;;;;;;;;;-2.30;99.90;;;;;;5014268;28;20011;-78
2022/01/10 03:57:14;;;;;;;;;;;-2.40;99.90;;;;;;5030612;28;20380;-78
2022/01/10 03:59:40;;;;;;;;;;;-2.50;99.90;;;;;;5030509;28;19942;-78
2022/01/10 04:02:05;;;;;;;;;;;-2.40;99.90;;;;;;5030346;28;19913;-78
2022/01/10 04:04:35;;;;;;;;;;;-2.40;99.90;;;;;;5030351;28;19916;-78
2022/01/10 04:07:01;;;;;;;;;;;-2.40;99.90;;;;;;5030038;28;19909;-78
2022/01/10 04:09:26;;;;;;;;;;;-2.50;99.90;;;;;;5047728;28;19932;-79
2022/01/10 04:11:52;;;;;;;;;;;-2.40;99.90;;;;;;5013677;28;19976;-79
2022/01/10 04:14:18;;;;;;;;;;;-2.40;99.90;;;;;;5029951;28;20007;-79
2022/01/10 04:16:43;;;;;;;;;;;-2.60;99.90;;;;;;5013501;28;19909;-78
2022/01/10 04:19:09;;;;;;;;;;;-2.50;99.90;;;;;;5013432;28;19915;-79
2022/01/10 04:21:34;;;;;;;;;;;-2.50;99.90;;;;;;5029553;28;20376;-79
2022/01/10 04:24:03;;;;;;;;;;;-2.40;99.90;;;;;;5013257;28;19968;-79
2022/01/10 04:26:28;;;;;;;;;;;-2.50;99.90;;;;;;5013478;28;19909;-79
2022/01/10 04:28:54;;;;;;;;;;;-2.50;99.90;;;;;;5013428;28;19932;-79
2022/01/10 04:31:20;;;;;;;;;;;-2.30;99.90;;;;;;5010610;28;19956;-79
2022/01/10 04:33:46;;;;;;;;;;;-2.20;99.90;;;;;;5023752;28;19924;-80
2022/01/10 04:36:11;;;;;;;;;;;-2.20;99.90;;;;;;5023487;28;19985;-79
2022/01/10 04:38:37;;;;;;;;;;;-2.20;99.90;;;;;;5028932;28;19933;-79
2022/01/10 04:41:03;;;;;;;;;;;-2.30;99.90;;;;;;5027565;28;19916;-80
2022/01/10 04:43:29;;;;;;;;;;;-2.50;99.90;;;;;;5023559;28;19916;-79
2022/01/10 04:45:55;;;;;;;;;;;-2.40;99.90;;;;;;5028605;28;19909;-79
2022/01/10 04:48:21;;;;;;;;;;;-2.50;99.90;;;;;;5027644;28;19915;-79
2022/01/10 04:53:26;;;;;;;;;;;-2.30;99.90;;;;;;5025553;28;19928;-80
2022/01/10 04:55:52;;;;;;;;;;;-2.30;99.90;;;;;;5028542;28;19951;-81
2022/01/10 04:58:18;;;;;;;;;;;-2.10;99.90;;;;;;5028577;28;19909;-80
2022/01/10 05:00:44;;;;;;;;;;;-2.30;99.90;;;;;;5028385;28;19909;-80
2022/01/10 05:03:09;;;;;;;;;;;-2.30;99.90;;;;;;5028219;28;19928;-80
2022/01/10 05:05:35;;;;;;;;;;;-2.10;99.90;;;;;;5025294;28;19920;-80
2022/01/10 05:08:01;;;;;;;;;;;-2.10;99.90;;;;;;5028060;28;20320;-81
2022/01/10 05:10:27;;;;;;;;;;;-2.30;99.90;;;;;;4995863;28;19916;-81
2022/01/10 05:12:53;;;;;;;;;;;-2.10;99.90;;;;;;5015008;28;19920;-81
2022/01/10 05:15:18;;;;;;;;;;;-2.20;99.90;;;;;;5025903;28;20069;-81
2022/01/10 05:17:44;;;;;;;;;;;-2.10;99.90;;;;;;5043458;28;19916;-81
2022/01/10 05:20:10;;;;;;;;;;;-2.20;99.90;;;;;;5028039;28;19909;-81
2022/01/10 05:22:36;;;;;;;;;;;-2.20;99.90;;;;;;5027965;28;20016;-80
2022/01/10 05:25:01;;;;;;;;;;;-2.00;99.90;;;;;;5027790;28;19963;-81
2022/01/10 05:27:28;;;;;;;;;;;-1.90;99.90;;;;;;5022627;28;19996;-81
2022/01/10 05:30:17;;;;;;;;;;;-1.70;99.90;;;;;;5027762;28;19935;-81
2022/01/10 05:32:44;;;;;;;;;;;-1.90;99.90;;;;;;4928918;29;19947;-81
2022/01/10 05:35:32;;;;;;;;;;;-1.70;99.90;;;;;;4926841;29;19919;-80
2022/01/10 05:37:58;;;;;;;;;;;-1.70;99.90;;;;;;4911270;29;19911;-81
2022/01/10 05:40:23;;;;;;;;;;;-1.70;99.90;;;;;;4929936;29;19911;-80
2022/01/10 05:42:49;;;;;;;;;;;-1.60;99.90;;;;;;4911097;29;19911;-80
2022/01/10 05:45:15;;;;;;;;;;;-1.60;99.90;;;;;;4926582;29;19911;-81
2022/01/10 05:47:43;;;;;;;;;;;-1.60;99.90;;;;;;4911117;29;19935;-80
2022/01/10 05:50:10;;;;;;;;;;;-1.50;99.90;;;;;;4926510;29;19973;-80
2022/01/10 05:52:40;;;;;;;;;;;-1.30;99.90;;;;;;4910990;29;19918;-80
2022/01/10 05:55:06;;;;;;;;;;;-1.40;99.90;;;;;;4911341;29;19927;-80
2022/01/10 05:57:32;;;;;;;;;;;-1.40;99.90;;;;;;4911041;29;19929;-80
2022/01/10 05:59:58;;;;;;;;;;;-1.30;99.90;;;;;;4926660;29;19997;-80
2022/01/10 06:02:23;;;;;;;;;;;-1.20;99.90;;;;;;4928825;29;19942;-80
2022/01/10 06:04:49;;;;;;;;;;;-1.00;99.90;;;;;;4910649;29;19946;-80
2022/01/10 06:07:26;;;;;;;;;;;-1.10;99.90;;;;;;4923709;29;19915;-81
2022/01/10 06:09:52;;;;;;;;;;;-1.10;99.90;;;;;;4960605;28;19909;-81
2022/01/10 06:12:19;;;;;;;;;;;-1.10;99.90;;;;;;5010306;28;19996;-80
2022/01/10 06:14:44;;;;;;;;;;;-1.10;99.90;;;;;;5026666;28;20010;-80
2022/01/10 06:17:10;;;;;;;;;;;-0.90;99.90;;;;;;5024057;28;20301;-81
2022/01/10 06:19:35;;;;;;;;;;;-1.00;99.90;;;;;;5021977;28;19918;-81
2022/01/10 06:22:01;;;;;;;;;;;-0.90;99.90;;;;;;5020623;28;19909;-81
2022/01/10 06:24:28;;;;;;;;;;;-0.80;99.90;;;;;;5040567;28;19963;-80
2022/01/10 06:26:54;;;;;;;;;;;-0.90;99.90;;;;;;5007645;28;19968;-81
2022/01/10 06:29:20;;;;;;;;;;;-0.90;99.90;;;;;;5010437;28;19909;-80
2022/01/10 06:31:46;;;;;;;;;;;-0.70;99.90;;;;;;5018656;28;19948;-82
2022/01/10 06:34:15;;;;;;;;;;;-0.70;99.90;;;;;;5026730;28;19917;-79
2022/01/10 06:36:41;;;;;;;;;;;-0.50;99.90;;;;;;5026603;28;19916;-79
2022/01/10 06:39:07;;;;;;;;;;;-0.30;99.90;;;;;;5032878;28;19920;-79
2022/01/10 06:41:34;;;;;;;;;;;-0.40;99.90;;;;;;5026969;28;19909;-79
2022/01/10 06:43:59;;;;;;;;;;;-0.60;99.90;;;;;;5029301;28;19916;-83
2022/01/10 06:46:25;;;;;;;;;;;-0.60;99.90;;;;;;5031035;28;19913;-80
2022/01/10 06:48:51;;;;;;;;;;;-0.50;99.90;;;;;;5047183;28;20338;-80
2022/01/10 06:51:20;;;;;;;;;;;-0.40;99.90;;;;;;5046250;28;19909;-79
2022/01/10 06:53:48;;;;;;;;;;;-0.50;99.90;;;;;;5030393;28;20308;-80
2022/01/10 06:56:13;;;;;;;;;;;-0.70;99.90;;;;;;5033390;28;19985;-79
2022/01/10 06:58:39;;;;;;;;;;;-0.90;99.90;;;;;;5030240;28;19909;-79
2022/01/10 07:01:08;;;;;;;;;;;-1.00;99.90;;;;;;5030375;28;20020;-80
2022/01/10 07:03:34;;;;;;;;;;;-1.00;99.90;;;;;;5030191;28;19909;-80
2022/01/10 07:06:12;;;;;;;;;;;-0.90;99.90;;;;;;5030108;28;19909;-80
2022/01/10 07:08:37;;;;;;;;;;;-0.80;99.90;;;;;;5046780;28;19909;-80
2022/01/10 07:11:03;;;;;;;;;;;-0.80;99.90;;;;;;5013550;28;19909;-80
2022/01/10 07:13:30;;;;;;;;;;;-0.90;99.90;;;;;;5030065;28;20340;-80
2022/01/10 07:15:58;;;;;;;;;;;-0.70;99.90;;;;;;5030564;28;19932;-80
2022/01/10 07:18:24;;;;;;;;;;;-0.80;99.90;;;;;;5035712;28;19909;-80
2022/01/10 07:20:52;;;;;;;;;;;-0.90;99.90;;;;;;5032666;28;19912;-80
2022/01/10 07:23:20;;;;;;;;;;;-0.90;99.90;;;;;;5046469;28;20016;-80
2022/01/10 07:25:46;;;;;;;;;;;-1.00;99.90;;;;;;5032863;28;19913;-79
2022/01/10 07:28:11;;;;;;;;;;;-0.90;99.90;;;;;;5032911;28;19940;-79
2022/01/10 07:30:37;;;;;;;;;;;-0.90;99.90;;;;;;5013558;28;19909;-79
2022/01/10 07:33:02;;;;;;;;;;;-1.00;99.90;;;;;;5043937;28;19928;-79
2022/01/10 07:35:28;;;;;;;;;;;-1.00;99.90;;;;;;5030030;28;19928;-79
2022/01/10 07:37:53;;;;;;;;;;;-1.00;99.90;;;;;;5029324;28;19909;-78
2022/01/10 07:40:19;;;;;;;;;;;-0.90;99.90;;;;;;5027962;28;20277;-78
2022/01/10 07:42:44;;;;;;;;;;;-0.80;99.90;;;;;;5028189;28;19909;-78
2022/01/10 07:45:15;;;;;;;;;;;-0.70;99.90;;;;;;5029845;28;19909;-78
2022/01/10 07:47:40;;;;;;;;;;;-0.70;99.90;;;;;;5032566;28;20292;-78
2022/01/10 07:50:06;;;;;;;;;;;-0.70;99.90;;;;;;5031605;28;19913;-78
2022/01/10 07:52:31;;;;;;;;;;;-0.70;99.90;;;;;;5015133;28;19909;-78
2022/01/10 07:54:57;;;;;;;;;;;-0.60;99.90;;;;;;5046694;28;19917;-78
2022/01/10 07:57:23;;;;;;;;;;;-0.60;99.90;;;;;;5028827;28;20277;-78
2022/01/10 07:59:48;;;;;;;;;;;-0.50;99.90;;;;;;5028741;28;19916;-78
2022/01/10 08:02:15;;;;;;;;;;;-0.40;99.90;;;;;;5045088;28;19909;-78
2022/01/10 08:04:40;;;;;;;;;;;-0.50;99.90;;;;;;5045224;28;19917;-78
2022/01/10 08:07:06;;;;;;;;;;;-0.40;99.90;;;;;;5030805;28;19913;-77
2022/01/10 08:09:31;;;;;;;;;;;-0.40;99.90;;;;;;5048129;28;19936;-78
2022/01/10 08:11:59;;;;;;;;;;;-0.30;99.90;;;;;;5028609;28;19913;-78
2022/01/10 08:14:26;;;;;;;;;;;-0.10;99.90;;;;;;5030984;28;19917;-78
2022/01/10 08:16:51;;;;;;;;;;;-0.20;99.90;;;;;;5049262;28;19916;-77
2022/01/10 08:19:17;;;;;;;;;;;-0.20;99.90;;;;;;5046184;28;19917;-78
2022/01/10 08:21:42;;;;;;;;;;;-0.10;99.90;;;;;;5030522;28;19912;-78
2022/01/10 08:24:08;;;;;;;;;;;-0.30;99.90;;;;;;5029924;28;19916;-78
2022/01/10 08:26:33;;;;;;;;;;;-0.20;99.90;;;;;;5045853;28;19979;-78
2022/01/10 08:28:59;;;;;;;;;;;-0.20;99.90;;;;;;5028152;28;19909;-78
2022/01/10 08:31:24;;;;;;;;;;;-0.20;99.90;;;;;;5037485;28;19933;-78
2022/01/10 08:33:50;;;;;;;;;;;-0.20;99.90;;;;;;5040772;28;19918;-79
2022/01/10 08:36:16;;;;;;;;;;;0.00;99.90;;;;;;5040879;28;19976;-77
2022/01/10 08:38:41;;;;;;;;;;;-0.10;99.90;;;;;;5007807;28;19916;-78
2022/01/10 08:41:07;;;;;;;;;;;-0.10;99.90;;;;;;5005729;28;19910;-77
2022/01/10 08:43:33;;;;;;;;;;;-0.10;99.90;;;;;;5022568;28;19910;-78
2022/01/10 08:45:58;;;;;;;;;;;0.00;99.90;;;;;;5025852;28;20020;-78
2022/01/10 08:48:24;;;;;;;;;;;0.10;99.90;;;;;;4991872;28;19909;-77
2022/01/10 08:50:49;;;;;;;;;;;0.10;99.90;;;;;;4967701;28;20326;-78
2022/01/10 08:53:15;;;;;;;;;;;0.30;99.90;;;;;;5003932;28;19917;-77
2022/01/10 08:55:40;;;;;;;;;;;0.20;99.90;;;;;;4988601;28;19916;-77
2022/01/10 08:58:06;;;;;;;;;;;0.30;99.90;;;;;;5003267;28;19914;-77
2022/01/10 09:00:32;;;;;;;;;;;0.30;99.90;;;;;;5005631;28;20370;-77
2022/01/10 09:02:57;;;;;;;;;;;0.40;99.90;;;;;;5020933;28;19909;-77
2022/01/10 09:05:23;;;;;;;;;;;0.40;99.90;;;;;;4974635;28;19909;-77
2022/01/10 09:07:48;;;;;;;;;;;0.50;99.90;;;;;;5005876;28;19916;-78
2022/01/10 09:10:14;;;;;;;;;;;0.60;99.90;;;;;;5005510;28;19909;-76
2022/01/10 09:12:39;;;;;;;;;;;0.80;99.90;;;;;;5005788;28;19909;-76
2022/01/10 09:15:06;;;;;;;;;;;0.80;99.90;;;;;;5002581;28;19924;-76
2022/01/10 09:17:32;;;;;;;;;;;0.70;99.90;;;;;;5005770;28;19985;-77
2022/01/10 09:19:57;;;;;;;;;;;0.80;99.90;;;;;;5005550;28;19956;-76
2022/01/10 09:22:23;;;;;;;;;;;0.90;99.90;;;;;;5005645;28;19956;-76
2022/01/10 09:24:49;;;;;;;;;;;0.90;99.90;;;;;;5005402;28;20008;-76
2022/01/10 09:27:14;;;;;;;;;;;1.00;99.90;;;;;;5005762;28;19920;-75
2022/01/10 09:29:40;;;;;;;;;;;1.00;99.90;;;;;;5003959;28;19917;-76
2022/01/10 09:32:07;;;;;;;;;;;1.00;99.90;;;;;;5011635;23;19922;-75
2022/01/10 09:34:34;;;;;;;;;;;1.10;99.90;;;;;;4953160;28;19922;-76
2022/01/10 09:36:59;;;;;;;;;;;1.20;99.90;;;;;;4969530;28;19945;-76
2022/01/10 09:39:26;;;;;;;;;;;1.30;99.90;;;;;;4969580;28;19910;-76
2022/01/10 09:41:52;;;;;;;;;;;1.40;99.90;;;;;;4953307;28;19916;-75
2022/01/10 09:44:18;;;;;;;;;;;1.40;99.90;;;;;;4969195;28;20354;-76
2022/01/10 09:46:47;;;;;;;;;;;1.40;99.90;;;;;;4953431;28;19910;-75
2022/01/10 09:49:13;;;;;;;;;;;1.50;99.90;;;;;;4986896;28;19909;-75
2022/01/10 09:51:38;;;;;;;;;;;1.60;99.90;;;;;;4953044;28;19970;-75
2022/01/10 09:54:05;;;;;;;;;;;1.60;99.90;;;;;;4986328;28;19944;-76
2022/01/10 09:56:30;;;;;;;;;;;1.70;99.90;;;;;;4953357;28;19910;-75
2022/01/10 09:58:57;;;;;;;;;;;1.80;99.90;;;;;;4969169;28;20012;-75
2022/01/10 10:01:24;;;;;;;;;;;1.80;99.90;;;;;;4969036;28;19933;-75
2022/01/10 10:03:50;;;;;;;;;;;1.90;99.90;;;;;;4952809;28;19915;-75
2022/01/10 10:06:16;;;;;;;;;;;1.90;99.90;;;;;;4968983;28;19910;-75
2022/01/10 10:08:43;;;;;;;;;;;2.00;99.90;;;;;;4962413;28;19973;-75
2022/01/10 10:11:09;;;;;;;;;;;2.10;99.90;;;;;;4966697;29;19910;-76
2022/01/10 10:13:42;;;;;;;;;;;2.10;99.90;;;;;;4949378;29;19929;-76
2022/01/10 10:16:13;;;;;;;;;;;2.10;99.90;;;;;;4949645;29;19953;-77
2022/01/10 10:18:38;;;;;;;;;;;2.30;99.90;;;;;;4951442;29;19910;-77
2022/01/10 10:21:09;;;;;;;;;;;2.40;99.90;;;;;;4953371;29;20294;-76
2022/01/10 10:23:35;;;;;;;;;;;2.40;99.90;;;;;;4953154;29;19922;-76
2022/01/10 10:26:00;;;;;;;;;;;2.50;99.90;;;;;;4970428;29;19979;-77
2022/01/10 10:28:26;;;;;;;;;;;2.40;99.90;;;;;;4970702;29;20278;-76
2022/01/10 10:30:56;;;;;;;;;;;2.50;99.90;;;;;;4973665;28;19959;-76
2022/01/10 10:33:23;;;;;;;;;;;2.60;99.90;;;;;;4988892;28;19938;-76
2022/01/10 10:35:56;;;;;;;;;;;2.60;99.90;;;;;;4989181;28;20472;-76
2022/01/10 10:38:23;;;;;;;;;;;2.70;99.90;;;;;;4958103;28;19977;-76
2022/01/10 10:40:49;;;;;;;;;;;2.70;99.90;;;;;;4987695;28;19914;-76
2022/01/10 10:43:14;;;;;;;;;;;2.80;99.90;;;;;;4988926;28;19910;-77
2022/01/10 10:45:40;;;;;;;;;;;2.80;99.90;;;;;;4988958;28;19999;-76
2022/01/10 10:48:07;;;;;;;;;;;2.80;99.90;;;;;;4988933;28;19917;-76
2022/01/10 10:50:41;;;;;;;;;;;2.90;99.90;;;;;;4971592;28;19990;-76
2022/01/10 10:53:09;;;;;;;;;;;3.00;99.90;;;;;;4970873;28;19920;-76
2022/01/10 10:55:36;;;;;;;;;;;3.00;99.90;;;;;;4988706;28;19917;-76
2022/01/10 10:58:02;;;;;;;;;;;3.20;99.90;;;;;;4988797;28;21026;-75
2022/01/10 11:00:27;;;;;;;;;;;3.20;99.90;;;;;;4971120;28;19914;-76
2022/01/10 11:02:53;;;;;;;;;;;3.30;99.90;;;;;;4988665;28;19914;-75
2022/01/10 11:05:19;;;;;;;;;;;3.20;99.90;;;;;;4988551;28;19950;-75
2022/01/10 11:07:45;;;;;;;;;;;3.40;99.90;;;;;;4988347;28;19992;-75
2022/01/10 11:10:11;;;;;;;;;;;3.30;99.90;;;;;;4988607;28;20013;-75
2022/01/10 11:12:38;;;;;;;;;;;3.40;99.90;;;;;;4988284;28;20425;-75
2022/01/10 11:15:04;;;;;;;;;;;3.50;99.90;;;;;;4988373;28;20301;-75
2022/01/10 11:17:30;;;;;;;;;;;3.50;99.90;;;;;;4988598;28;19910;-75
2022/01/10 11:20:13;;;;;;;;;;;3.60;99.90;;;;;;4988641;28;19980;-75
2022/01/10 11:22:43;;;;;;;;;;;3.50;99.90;;;;;;4988270;28;19920;-75
2022/01/10 11:25:22;;;;;;;;;;;3.60;99.90;;;;;;4989336;28;19965;-75
2022/01/10 11:27:48;;;;;;;;;;;3.60;99.90;;;;;;4988255;28;19982;-75
2022/01/10 11:30:23;;;;;;;;;;;3.60;99.90;;;;;;4987017;28;19910;-78
2022/01/10 11:32:50;;;;;;;;;;;3.60;99.90;;;;;;4987996;28;19918;-75
2022/01/10 11:35:16;;;;;;;;;;;3.80;99.90;;;;;;4988149;28;19993;-77
2022/01/10 11:37:42;;;;;;;;;;;3.90;99.90;;;;;;4990500;28;19961;-78
2022/01/10 11:40:08;;;;;;;;;;;4.00;99.90;;;;;;4970876;28;19910;-75
2022/01/10 11:42:42;;;;;;;;;;;3.90;99.90;;;;;;4954246;28;19957;-75
2022/01/10 11:45:08;;;;;;;;;;;3.90;99.90;;;;;;4954593;28;19918;-75
2022/01/10 11:47:52;;;;;;;;;;;3.90;99.90;;;;;;4973152;28;19917;-75
2022/01/10 11:50:26;;;;;;;;;;;3.90;99.90;;;;;;4970364;28;19956;-76
2022/01/10 11:52:55;;;;;;;;;;;4.00;99.90;;;;;;4969911;28;19992;-75
2022/01/10 11:55:40;;;;;;;;;;;4.10;99.90;;;;;;4970234;28;19979;-75
2022/01/10 11:58:13;;;;;;;;;;;3.90;99.90;;;;;;4970175;28;19909;-79
2022/01/10 12:00:39;;;;;;;;;;;4.00;99.90;;;;;;4970197;28;20389;-77
2022/01/10 12:03:04;;;;;;;;;;;4.00;99.90;;;;;;4986102;28;19934;-77
2022/01/10 12:05:30;;;;;;;;;;;4.00;99.90;;;;;;4970086;28;19972;-75
2022/01/10 12:07:55;;;;;;;;;;;4.10;99.90;;;;;;4969927;28;19946;-75
2022/01/10 12:10:21;;;;;;;;;;;4.30;99.90;;;;;;4987580;28;19910;-75
2022/01/10 12:12:50;;;;;;;;;;;4.30;99.90;;;;;;4987060;28;19917;-75
2022/01/10 12:15:16;;;;;;;;;;;4.30;99.90;;;;;;4969976;28;20502;-76
2022/01/10 12:17:41;;;;;;;;;;;4.50;99.90;;;;;;4969798;28;20157;-75
2022/01/10 12:20:08;;;;;;;;;;;4.50;99.90;;;;;;4970121;28;19910;-76
2022/01/10 12:22:34;;;;;;;;;;;4.50;99.90;;;;;;4986836;28;19906;-76
2022/01/10 12:25:00;;;;;;;;;;;4.10;99.90;;;;;;4953824;28;20012;-75
2022/01/10 12:27:26;;;;;;;;;;;4.20;99.90;;;;;;4987008;28;19917;-75
2022/01/10 12:30:12;;;;;;;;;;;4.20;99.90;;;;;;4969631;28;19910;-74
2022/01/10 12:32:38;;;;;;;;;;;4.30;99.90;;;;;;4891498;29;19926;-75
2022/01/10 12:35:04;;;;;;;;;;;4.50;99.90;;;;;;4895513;29;19986;-78
2022/01/10 12:37:30;;;;;;;;;;;4.50;99.90;;;;;;4926882;29;19990;-76
2022/01/10 12:39:56;;;;;;;;;;;4.20;99.90;;;;;;4911391;29;19911;-75
2022/01/10 12:42:26;;;;;;;;;;;4.40;99.90;;;;;;4910966;29;19910;-75
2022/01/10 12:44:52;;;;;;;;;;;4.50;99.90;;;;;;4911332;29;19935;-78
2022/01/10 12:47:17;;;;;;;;;;;4.50;99.90;;;;;;4929659;29;19926;-75
2022/01/10 12:49:47;;;;;;;;;;;4.40;99.90;;;;;;4911205;29;19942;-74
2022/01/10 12:52:12;;;;;;;;;;;4.50;99.90;;;;;;4926594;29;20419;-75
2022/01/10 12:54:38;;;;;;;;;;;4.50;99.90;;;;;;4926652;29;19926;-74
2022/01/10 12:57:05;;;;;;;;;;;4.30;99.90;;;;;;4910991;29;19982;-75
2022/01/10 12:59:32;;;;;;;;;;;4.20;99.90;;;;;;4926844;29;20003;-77
2022/01/10 13:01:59;;;;;;;;;;;4.10;99.90;;;;;;4910805;29;19919;-74
2022/01/10 13:04:29;;;;;;;;;;;4.30;99.90;;;;;;4910666;29;19982;-74
2022/01/10 13:06:55;;;;;;;;;;;4.20;99.90;;;;;;4910739;29;19911;-74
2022/01/10 13:09:21;;;;;;;;;;;4.30;99.90;;;;;;4937846;28;19910;-77
2022/01/10 13:11:50;;;;;;;;;;;4.30;99.90;;;;;;4988433;28;19972;-76
2022/01/10 13:14:20;;;;;;;;;;;4.30;99.90;;;;;;4980135;28;19928;-78
2022/01/10 13:16:54;;;;;;;;;;;4.20;99.90;;;;;;5005652;28;20341;-75
2022/01/10 13:19:26;;;;;;;;;;;4.10;99.90;;;;;;5005520;28;19910;-74
2022/01/10 13:21:56;;;;;;;;;;;4.20;99.90;;;;;;5005480;28;19913;-75
2022/01/10 13:24:22;;;;;;;;;;;4.30;99.90;;;;;;5005360;28;19916;-75
2022/01/10 13:26:54;;;;;;;;;;;4.20;99.90;;;;;;5005703;28;19949;-76
2022/01/10 13:29:29;;;;;;;;;;;4.30;99.90;;;;;;5005504;28;19918;-76
2022/01/10 13:31:54;;;;;;;;;;;4.30;99.90;;;;;;4995590;28;19929;-77
2022/01/10 13:34:26;;;;;;;;;;;4.20;99.90;;;;;;4985945;28;19918;-74
2022/01/10 13:36:52;;;;;;;;;;;4.30;99.90;;;;;;4985810;28;19917;-74
2022/01/10 13:39:18;;;;;;;;;;;4.30;99.90;;;;;;4985951;28;19910;-74
2022/01/10 13:42:01;;;;;;;;;;;4.20;99.90;;;;;;4983065;28;19917;-74
2022/01/10 13:44:26;;;;;;;;;;;4.10;99.90;;;;;;4985730;28;20437;-74
2022/01/10 13:47:05;;;;;;;;;;;4.20;99.90;;;;;;4986063;28;19910;-75
2022/01/10 13:49:31;;;;;;;;;;;4.20;99.90;;;;;;4981177;28;19910;-74
2022/01/10 13:52:10;;;;;;;;;;;4.20;99.90;;;;;;4988397;28;19958;-74
2022/01/10 13:54:35;;;;;;;;;;;4.20;99.90;;;;;;4985314;28;19929;-75
2022/01/10 13:57:22;;;;;;;;;;;4.10;99.90;;;;;;4985913;28;19910;-74
2022/01/10 14:00:08;;;;;;;;;;;4.10;99.90;;;;;;4985500;28;19916;-75
2022/01/10 14:02:37;;;;;;;;;;;4.00;99.90;;;;;;4971289;28;19909;-74
2022/01/10 14:05:21;;;;;;;;;;;4.10;99.90;;;;;;4977399;28;19910;-76
2022/01/10 14:07:47;;;;;;;;;;;4.10;99.90;;;;;;4988498;28;19917;-75
2022/01/10 14:10:13;;;;;;;;;;;4.10;99.90;;;;;;4985985;28;20273;-76
2022/01/10 14:12:39;;;;;;;;;;;4.00;99.90;;;;;;4981778;28;19918;-75
2022/01/10 14:15:04;;;;;;;;;;;3.90;99.90;;;;;;4977242;28;19918;-75
2022/01/10 14:17:30;;;;;;;;;;;3.90;99.90;;;;;;4985636;28;19922;-79
2022/01/10 14:19:56;;;;;;;;;;;3.90;99.90;;;;;;4997745;28;19910;-77
2022/01/10 14:22:21;;;;;;;;;;;4.00;99.90;;;;;;4985373;28;19917;-75
2022/01/10 14:24:47;;;;;;;;;;;3.90;99.90;;;;;;4985740;28;19922;-76
2022/01/10 14:27:13;;;;;;;;;;;3.80;99.90;;;;;;4985625;28;19911;-75
2022/01/10 14:29:38;;;;;;;;;;;3.90;99.90;;;;;;4985469;28;19957;-76